Flight Track Log - Related Links

Times and Time Zones

All times are in EDT time to prevent confusion due to time zone crossing. See the ASQ5678 flight status page for this flight to view local times or setup timezone preferences in your user account.

Time Position Orientation Groundspeed Altitude Reporting Facility
EDT Latitude Longitude Course Direction KTS MPH feet Rate Location/Type
Mon 03:15:00 PM 29.9906 -92.2699 231° Southwest  Level FlightAware Approximate
Mon 03:15:14 PM 30.1642 -92.1444 232° Southwest 266 306 7,900  Level Houston Center
Mon 03:16:00 PM 29.9384 -92.3430 231° Southwest  Level FlightAware Approximate
Mon 03:16:16 PM 30.1136 -92.2122 229° Southwest 275 316 8,700  Level Houston Center
Mon 03:17:00 PM 29.8962 -92.4215 227° Southwest  Level FlightAware Approximate
Mon 03:17:18 PM 30.0625 -92.2822 230° Southwest 282 325 10,300  Level Houston Center
Mon 03:18:00 PM 29.8379 -92.4943 227° Southwest  Level FlightAware Approximate
Mon 03:18:20 PM 30.0092 -92.3572 231° Southwest 294 338 11,400  Level Houston Center
Mon 03:19:00 PM 29.7857 -92.5731 235° Southwest  Level FlightAware Approximate
Mon 03:19:22 PM 29.9344 -92.4600 230° Southwest 335 386 12,000  Level Houston Center
Mon 03:20:23 PM 29.8836 -92.5639 241° Southwest 371 427 11,900  Descending Houston Center
Mon 03:21:25 PM 29.8617 -92.6769 257° West 364 419 12,000  Climbing Houston Center
Mon 03:22:27 PM 29.8408 -92.7911 258° West 363 418 11,900 -48 Descending Houston Center
Mon 03:23:29 PM 29.8186 -92.9056 257° West 364 419 11,900 48 Level Houston Center
Mon 03:24:31 PM 29.7964 -93.0203 257° West 365 420 12,000 48 Climbing Houston Center
Mon 03:25:33 PM 29.7742 -93.1356 258° West 367 422 12,000  Level Houston Center
Mon 03:26:35 PM 29.7469 -93.2756 257° West 371 427 12,000  Level Houston Center
Mon 03:27:37 PM 29.7228 -93.3958 257° West 384 442 12,000 -48 Level Houston Center
Mon 03:28:39 PM 29.6997 -93.5153 257° West 382 440 11,900 -48 Descending Houston Center
Mon 03:29:41 PM 29.6761 -93.6342 257° West 381 438 11,900  Level Houston Center
Mon 03:30:43 PM 29.6528 -93.7517 257° West 376 433 11,900  Level Houston Center
Mon 03:31:45 PM 29.6289 -93.8706 257° West 380 437 11,900 48 Level Houston Center
Mon 03:32:47 PM 29.6053 -93.9881 257° West 379 436 12,000 48 Climbing Houston Center
Mon 03:33:50 PM 29.5756 -94.1319 257° West 384 442 12,000  Level Houston Center
Mon 03:34:35 PM 29.5581 -94.2242 258° West 384 442 12,000  Level Houston Center
Mon 03:35:30 PM 29.5397 -94.3347 259° West 384 442 12,000 -103 Level Houston Center
Mon 03:36:31 PM 29.5789 -94.4547 291° West 384 442 11,800 -621 Descending Houston Center
Mon 03:37:26 PM 29.6197 -94.5506 296° West 385 443 10,800 -897 Descending Houston Center
Mon 03:37:58 PM 29.6369 -94.5872 298° West 382 440 10,500 -957 Descending Houston Center
Mon 03:39:00 PM 29.6817 -94.6936 296° West 311 358 9,300 -1,412 Descending Houston Center
Mon 03:39:40 PM 29.7067 -94.7536 296° West 288 331 8,100 -1,685 Descending Houston Center
Mon 03:40:29 PM 29.7339 -94.8175 296° West 275 316 6,800 -1,429 Descending Houston Center
Mon 03:41:04 PM 29.7500 -94.8525 298° West 277 319 6,100 -716 Descending Houston Center
Mon 03:41:36 PM 29.7692 -94.9022 294° West 262 302 6,000 -97 Descending Houston Center
Mon 03:42:06 PM 29.7822 -94.9275 301° West 266 306 6,000  Level Houston Center
Mon 03:42:37 PM 29.8042 -94.9819 295° West 274 315 6,000  Level Houston Center
Mon 03:43:08 PM 29.8144 -95.0056 297° West 270 311 6,000  Level Houston Center
Mon 03:43:38 PM 29.8367 -95.0600 295° West 269 310 6,000  Level Houston Center
Mon 03:44:10 PM 29.8528 -95.0981 296° West 271 312 6,000  Level Houston Center
Mon 03:44:46 PM 29.8744 -95.1492 296° West 278 320 6,000  Level Houston Center
Mon 03:45:41 PM 29.8981 -95.2236 290° West 271 312 6,000  Level Houston Center
Mon 03:46:14 PM 29.9000 -95.2589 274° West 270 311 6,000  Level Houston Center
Mon 03:47:17 PM 29.9000 -95.3403 270° West 259 298 6,000  Level Houston Center
Mon 03:48:19 PM 29.9011 -95.4300 271° West 237 273 6,000 -339 Level Houston Center
Mon 03:49:21 PM 29.9006 -95.5044 270° West 237 273 5,300 -968 Descending Houston Center
Mon 03:50:23 PM 29.9014 -95.5789 271° West 232 267 4,000 -629 Descending Houston Center
Mon 03:51:25 PM 29.9114 -95.6489 279° West 234 269 4,000  Level Houston Center
Mon 03:52:27 PM 29.9661 -95.6231 22° Northeast 233 268 4,000 -48 Level Houston Center
Mon 03:53:29 PM 29.9919 -95.5639 63° Northeast 227 261 3,900 -768 Descending Houston Center
Mon 03:54:32 PM 29.9933 -95.4814 89° East 220 253 2,400 -1,248 Descending Houston Center
Mon 03:55:34 PM 29.9944 -95.4253 89° East 199 229 1,300 -823 Descending Houston Center
Mon 03:56:36 PM 29.9939 -95.3828 91° East 159 183 700 -387 Descending Houston Center
Mon 03:57:38 PM 29.9958 -95.3386 87° East 155 178 500 -194 Descending Houston Center

Login

Don't have an account? Register now (free) for customized features, flight alerts, and more!